createdAt,value
2019-03-06T00:00:44.677Z,2.20
2019-03-06T00:01:44.675Z,2.40
2019-03-06T00:02:44.642Z,2.10
2019-03-06T00:03:44.637Z,2.40
2019-03-06T00:04:44.615Z,2.90
2019-03-06T00:05:44.639Z,2.30
2019-03-06T00:06:44.598Z,2.30
2019-03-06T00:07:44.598Z,2.60
2019-03-06T00:08:44.590Z,2.30
2019-03-06T00:09:44.571Z,2.30
2019-03-06T00:10:44.569Z,2.90
2019-03-06T00:11:44.541Z,2.70
2019-03-06T00:12:44.544Z,4.20
2019-03-06T00:13:44.524Z,3.20
2019-03-06T00:14:44.555Z,3.40
2019-03-06T00:15:44.496Z,4.30
2019-03-06T00:16:44.487Z,3.00
2019-03-06T00:17:44.525Z,2.70
2019-03-06T00:18:44.462Z,3.00
2019-03-06T00:19:44.452Z,3.90
2019-03-06T00:20:44.439Z,5.10
2019-03-06T00:21:44.441Z,3.40
2019-03-06T00:22:44.427Z,3.50
2019-03-06T00:23:44.472Z,4.80
2019-03-06T00:24:44.408Z,5.10
2019-03-06T00:25:44.385Z,4.70
2019-03-06T00:26:44.372Z,5.80
2019-03-06T00:27:44.373Z,5.40
2019-03-06T00:28:44.367Z,5.00
2019-03-06T00:29:44.349Z,5.60
2019-03-06T00:30:44.352Z,4.40
2019-03-06T00:31:44.326Z,5.80
2019-03-06T00:32:44.325Z,5.60
2019-03-06T00:33:44.320Z,4.50
2019-03-06T00:34:44.281Z,5.70
2019-03-06T00:35:44.283Z,6.10
2019-03-06T00:36:44.264Z,5.10
2019-03-06T00:37:44.254Z,6.50
2019-03-06T00:38:44.251Z,6.80
2019-03-06T00:39:44.260Z,6.70
2019-03-06T00:40:44.234Z,7.40
2019-03-06T00:41:44.240Z,7.70
2019-03-06T00:42:44.201Z,7.00
2019-03-06T00:43:44.186Z,6.60
2019-03-06T00:44:44.205Z,6.50
2019-03-06T00:45:44.177Z,6.90
2019-03-06T00:46:44.162Z,6.30
2019-03-06T00:47:44.153Z,6.90
2019-03-06T00:48:44.159Z,6.90
2019-03-06T00:49:44.133Z,6.70
2019-03-06T00:50:44.130Z,6.60
2019-03-06T00:51:44.118Z,6.80
2019-03-06T00:52:44.104Z,6.90
2019-03-06T00:53:44.081Z,7.50
2019-03-06T00:54:44.062Z,7.00
2019-03-06T00:55:44.063Z,7.30
2019-03-06T00:56:44.073Z,7.00
2019-03-06T00:57:44.030Z,7.10
2019-03-06T00:58:44.014Z,6.80
2019-03-06T00:59:44.024Z,7.30
2019-03-06T01:00:44.013Z,7.30
2019-03-06T01:01:43.990Z,10.30
2019-03-06T01:02:44.008Z,7.40
2019-03-06T01:03:43.967Z,6.80
2019-03-06T01:04:43.951Z,8.00
2019-03-06T01:05:43.967Z,6.70
2019-03-06T01:06:43.947Z,7.10
2019-03-06T01:07:43.939Z,7.60
2019-03-06T01:08:43.916Z,7.30
2019-03-06T01:09:43.903Z,7.20
2019-03-06T01:10:43.893Z,8.40
2019-03-06T01:11:43.898Z,7.20
2019-03-06T01:12:43.859Z,8.10
2019-03-06T01:13:43.853Z,7.50
2019-03-06T01:14:43.847Z,7.70
2019-03-06T01:15:43.827Z,7.60
2019-03-06T01:16:43.833Z,7.90
2019-03-06T01:17:43.817Z,8.00
2019-03-06T01:18:43.815Z,8.20
2019-03-06T01:19:43.824Z,7.70
2019-03-06T01:20:43.794Z,9.00
2019-03-06T01:21:44.699Z,7.70
2019-03-06T01:22:43.753Z,8.70
2019-03-06T01:23:43.752Z,8.50
2019-03-06T01:24:43.747Z,8.70
2019-03-06T01:25:43.720Z,8.70
2019-03-06T01:26:43.710Z,8.20
2019-03-06T01:27:43.691Z,8.50
2019-03-06T01:28:43.684Z,8.50
2019-03-06T01:29:43.682Z,9.30
2019-03-06T01:30:43.683Z,8.30
2019-03-06T01:31:43.658Z,8.30
2019-03-06T01:32:43.671Z,9.20
2019-03-06T01:33:43.635Z,9.10
2019-03-06T01:34:43.650Z,8.90
2019-03-06T01:35:43.637Z,8.50
2019-03-06T01:36:43.598Z,9.40
2019-03-06T01:37:43.578Z,9.30
2019-03-06T01:38:43.612Z,9.60
2019-03-06T01:39:43.562Z,8.30
2019-03-06T01:40:43.556Z,9.60
2019-03-06T01:41:43.559Z,9.30
2019-03-06T01:42:43.537Z,9.80
2019-03-06T01:43:43.526Z,9.40
2019-03-06T01:44:43.537Z,9.80
2019-03-06T01:45:43.519Z,10.40
2019-03-06T01:46:43.513Z,10.90
2019-03-06T01:47:43.490Z,9.40
2019-03-06T01:48:43.463Z,15.00
2019-03-06T01:49:43.449Z,21.80
2019-03-06T01:50:43.477Z,22.50
2019-03-06T01:51:43.451Z,17.30
2019-03-06T01:52:43.415Z,17.80
2019-03-06T01:53:43.437Z,16.30
2019-03-06T01:54:43.401Z,15.50
2019-03-06T01:55:43.380Z,14.20
2019-03-06T01:56:43.381Z,12.80
2019-03-06T01:57:43.396Z,12.40
2019-03-06T01:58:43.346Z,14.30
2019-03-06T01:59:43.353Z,13.30
2019-03-06T02:00:43.334Z,10.50
2019-03-06T02:01:43.320Z,11.40
2019-03-06T02:02:43.310Z,11.00
2019-03-06T02:03:43.304Z,11.60
2019-03-06T02:04:43.280Z,10.60
2019-03-06T02:05:43.284Z,11.50
2019-03-06T02:06:43.302Z,11.40
2019-03-06T02:07:43.265Z,12.30
2019-03-06T02:08:43.263Z,12.60
2019-03-06T02:09:43.234Z,11.70
2019-03-06T02:10:43.255Z,12.90
2019-03-06T02:11:43.215Z,11.10
2019-03-06T02:12:43.224Z,11.50
2019-03-06T02:13:43.222Z,11.80
2019-03-06T02:14:43.172Z,12.60
2019-03-06T02:15:43.158Z,13.30
2019-03-06T02:16:43.154Z,12.90
2019-03-06T02:17:43.150Z,14.20
2019-03-06T02:18:43.127Z,12.60
2019-03-06T02:19:43.119Z,11.70
2019-03-06T02:20:43.141Z,14.60
2019-03-06T02:21:43.095Z,13.00
2019-03-06T02:22:43.102Z,13.00
2019-03-06T02:23:43.101Z,12.70
2019-03-06T02:24:43.067Z,12.30
2019-03-06T02:25:43.050Z,14.00
2019-03-06T02:26:43.048Z,13.60
2019-03-06T02:27:43.047Z,13.00
2019-03-06T02:28:43.027Z,14.90
2019-03-06T02:29:43.019Z,15.80
2019-03-06T02:30:42.997Z,16.30
2019-03-06T02:31:42.990Z,15.30
2019-03-06T02:32:42.982Z,17.50
2019-03-06T02:33:42.998Z,15.70
2019-03-06T02:34:42.957Z,14.70
2019-03-06T02:35:42.948Z,16.10
2019-03-06T02:36:42.931Z,17.40
2019-03-06T02:37:42.946Z,17.20
2019-03-06T02:38:42.931Z,18.30
2019-03-06T02:39:42.909Z,21.10
2019-03-06T02:40:42.893Z,23.70
2019-03-06T02:41:42.879Z,21.90
2019-03-06T02:42:42.903Z,23.10
2019-03-06T02:43:42.892Z,22.20
2019-03-06T02:44:42.845Z,21.00
2019-03-06T02:45:42.839Z,20.60
2019-03-06T02:46:42.819Z,21.60
2019-03-06T02:47:42.823Z,20.30
2019-03-06T02:48:42.810Z,23.20
2019-03-06T02:49:42.843Z,23.10
2019-03-06T02:50:42.773Z,24.10
2019-03-06T02:51:42.769Z,23.00
2019-03-06T02:52:42.789Z,21.50
2019-03-06T02:53:42.740Z,24.20
2019-03-06T02:54:42.737Z,22.40
2019-03-06T02:55:42.739Z,25.90
2019-03-06T02:56:42.714Z,24.50
2019-03-06T02:57:42.719Z,26.30
2019-03-06T02:58:44.258Z,27.30
2019-03-06T02:59:42.674Z,27.90
2019-03-06T03:00:42.694Z,29.30
2019-03-06T03:01:42.669Z,28.20
2019-03-06T03:02:42.666Z,28.80
2019-03-06T03:03:42.629Z,28.00
2019-03-06T03:04:42.666Z,28.60
2019-03-06T03:05:42.605Z,28.50
2019-03-06T03:06:42.628Z,27.40
2019-03-06T03:07:42.581Z,28.70
2019-03-06T03:08:42.598Z,28.80
2019-03-06T03:09:42.563Z,27.20
2019-03-06T03:10:42.580Z,28.10
2019-03-06T03:11:42.539Z,28.90
2019-03-06T03:12:42.552Z,29.30
2019-03-06T03:13:42.544Z,28.40
2019-03-06T03:14:42.505Z,28.10
2019-03-06T03:15:42.532Z,27.70
2019-03-06T03:16:42.528Z,26.70
2019-03-06T03:17:42.477Z,24.60
2019-03-06T03:18:42.465Z,26.90
2019-03-06T03:19:49.530Z,28.30
2019-03-06T03:20:42.456Z,26.00
2019-03-06T03:21:42.439Z,26.80
2019-03-06T03:22:42.433Z,29.50
2019-03-06T03:23:42.403Z,25.60
2019-03-06T03:24:42.438Z,27.50
2019-03-06T03:25:42.391Z,26.80
2019-03-06T03:26:42.388Z,25.70
2019-03-06T03:27:42.362Z,28.40
2019-03-06T03:28:42.367Z,24.40
2019-03-06T03:29:42.349Z,25.80
2019-03-06T03:30:42.351Z,24.80
2019-03-06T03:31:42.381Z,26.00
2019-03-06T03:32:42.321Z,25.90
2019-03-06T03:33:42.395Z,24.00
2019-03-06T03:34:42.303Z,23.10
2019-03-06T03:35:42.313Z,23.70
2019-03-06T03:36:42.298Z,24.30
2019-03-06T03:37:42.270Z,24.40
2019-03-06T03:38:42.256Z,22.30
2019-03-06T03:39:42.245Z,23.00
2019-03-06T03:40:42.229Z,21.60
2019-03-06T03:41:42.213Z,22.40
2019-03-06T03:42:42.212Z,24.10
2019-03-06T03:43:42.211Z,23.60
2019-03-06T03:44:42.176Z,23.20
2019-03-06T03:45:42.186Z,23.80
2019-03-06T03:46:42.194Z,23.00
2019-03-06T03:47:42.160Z,20.40
2019-03-06T03:48:42.147Z,21.40
2019-03-06T03:49:42.134Z,20.60
2019-03-06T03:50:42.166Z,21.30
2019-03-06T03:51:42.129Z,22.20
2019-03-06T03:52:42.128Z,20.40
2019-03-06T03:53:42.121Z,21.30
2019-03-06T03:54:49.123Z,19.70
2019-03-06T03:55:42.061Z,21.30
2019-03-06T03:56:42.064Z,19.60
2019-03-06T03:57:42.055Z,20.50
2019-03-06T03:58:42.035Z,19.80
2019-03-06T03:59:42.017Z,20.60
2019-03-06T04:00:41.998Z,21.50
2019-03-06T04:01:41.981Z,20.70
2019-03-06T04:02:41.991Z,22.40
2019-03-06T04:03:41.978Z,20.70
2019-03-06T04:04:41.977Z,20.60
2019-03-06T04:05:41.962Z,21.70
2019-03-06T04:06:41.982Z,18.80
2019-03-06T04:07:41.932Z,19.20
2019-03-06T04:08:41.930Z,20.80
2019-03-06T04:09:41.917Z,18.90
2019-03-06T04:10:41.884Z,19.00
2019-03-06T04:11:41.889Z,19.90
2019-03-06T04:12:41.881Z,23.00
2019-03-06T04:13:41.861Z,19.70
2019-03-06T04:14:41.854Z,18.80
2019-03-06T04:15:41.845Z,18.80
2019-03-06T04:16:41.822Z,21.40
2019-03-06T04:17:41.857Z,20.70
2019-03-06T04:18:41.838Z,20.60
2019-03-06T04:19:41.817Z,21.00
2019-03-06T04:20:41.782Z,21.00
2019-03-06T04:21:41.767Z,18.90
2019-03-06T04:22:41.755Z,20.60
2019-03-06T04:23:41.760Z,19.50
2019-03-06T04:24:41.738Z,24.10
2019-03-06T04:25:41.739Z,21.90
2019-03-06T04:26:41.731Z,21.50
2019-03-06T04:27:41.710Z,22.30
2019-03-06T04:28:41.719Z,21.30
2019-03-06T04:29:41.725Z,22.00
2019-03-06T04:30:41.669Z,20.80
2019-03-06T04:31:41.676Z,21.20
2019-03-06T04:32:41.671Z,22.50
2019-03-06T04:33:41.675Z,22.40
2019-03-06T04:34:41.645Z,21.10
2019-03-06T04:35:41.612Z,22.90
2019-03-06T04:36:41.600Z,21.70
2019-03-06T04:37:41.584Z,21.80
2019-03-06T04:38:43.720Z,21.40
2019-03-06T04:39:41.575Z,22.20
2019-03-06T04:40:41.556Z,20.40
2019-03-06T04:41:41.570Z,23.30
2019-03-06T04:42:41.586Z,25.40
2019-03-06T04:43:41.536Z,22.00
2019-03-06T04:44:41.519Z,25.10
2019-03-06T04:45:41.504Z,23.80
2019-03-06T04:46:41.492Z,23.90
2019-03-06T04:47:41.483Z,24.70
2019-03-06T04:48:41.482Z,23.40
2019-03-06T04:49:41.494Z,24.50
2019-03-06T04:50:41.471Z,26.60
2019-03-06T04:51:41.469Z,26.20
2019-03-06T04:52:41.487Z,25.20
2019-03-06T04:53:41.424Z,26.00
2019-03-06T04:54:41.405Z,25.90
2019-03-06T04:55:41.408Z,25.00
2019-03-06T04:56:41.377Z,24.10
2019-03-06T04:57:41.369Z,25.80
2019-03-06T04:58:41.392Z,42.70
2019-03-06T04:59:41.356Z,79.70
2019-03-06T05:00:41.348Z,42.00
2019-03-06T05:01:41.347Z,24.20
2019-03-06T05:02:41.351Z,26.30
2019-03-06T05:03:41.298Z,26.30
2019-03-06T05:04:41.360Z,26.90
2019-03-06T05:05:41.298Z,27.10
2019-03-06T05:06:41.269Z,24.50
2019-03-06T05:07:41.250Z,26.70
2019-03-06T05:08:41.238Z,25.50
2019-03-06T05:09:41.229Z,21.80
2019-03-06T05:10:41.283Z,24.90
2019-03-06T05:11:41.216Z,24.50
2019-03-06T05:12:41.197Z,27.10
2019-03-06T05:13:41.217Z,26.80
2019-03-06T05:14:41.190Z,29.10
2019-03-06T05:15:41.170Z,33.10
2019-03-06T05:16:41.169Z,33.70
2019-03-06T05:17:41.149Z,30.70
2019-03-06T05:18:41.127Z,30.70
2019-03-06T05:19:41.122Z,30.90
2019-03-06T05:20:41.126Z,30.00
2019-03-06T05:21:41.134Z,29.70
2019-03-06T05:22:41.101Z,28.90
2019-03-06T05:23:41.112Z,29.70
2019-03-06T05:24:41.082Z,28.90
2019-03-06T05:25:41.054Z,30.40
2019-03-06T05:26:41.100Z,29.60
2019-03-06T05:27:41.045Z,28.30
2019-03-06T05:28:41.062Z,27.70
2019-03-06T05:29:41.043Z,30.90
2019-03-06T05:30:41.037Z,27.50
2019-03-06T05:31:40.991Z,33.20
2019-03-06T05:32:40.994Z,33.00
2019-03-06T05:33:40.978Z,30.50
2019-03-06T05:34:40.988Z,28.20
2019-03-06T05:35:40.968Z,31.00
2019-03-06T05:36:40.934Z,39.00
2019-03-06T05:37:40.972Z,37.90
2019-03-06T05:38:40.906Z,40.50
2019-03-06T05:39:40.895Z,41.40
2019-03-06T05:40:40.923Z,53.50
2019-03-06T05:41:40.892Z,68.60
2019-03-06T05:42:40.883Z,69.40
2019-03-06T05:43:40.880Z,79.90
2019-03-06T05:44:40.842Z,72.70
2019-03-06T05:45:40.827Z,66.10
2019-03-06T05:46:40.864Z,53.10
2019-03-06T05:47:40.852Z,48.20
2019-03-06T05:48:40.806Z,40.90
2019-03-06T05:49:40.796Z,38.80
2019-03-06T05:50:40.790Z,40.30
2019-03-06T05:51:40.783Z,43.00
2019-03-06T05:52:40.762Z,40.70
2019-03-06T05:53:40.755Z,45.40
2019-03-06T05:54:40.734Z,48.50
2019-03-06T05:55:40.745Z,46.40
2019-03-06T05:56:40.724Z,43.70
2019-03-06T05:57:40.734Z,41.40
2019-03-06T05:58:40.696Z,40.90
2019-03-06T05:59:40.679Z,44.90
2019-03-06T06:00:40.668Z,44.70
2019-03-06T06:01:40.661Z,42.40
2019-03-06T06:02:40.657Z,41.40
2019-03-06T06:03:40.656Z,43.10
2019-03-06T06:04:40.624Z,45.50
2019-03-06T06:05:40.619Z,39.40
2019-03-06T06:06:40.609Z,41.50
2019-03-06T06:07:41.566Z,41.00
2019-03-06T06:08:40.583Z,35.40
2019-03-06T06:09:40.578Z,34.90
2019-03-06T06:10:40.555Z,36.50
2019-03-06T06:11:40.550Z,34.40
2019-03-06T06:12:40.543Z,34.70
2019-03-06T06:13:40.592Z,34.40
2019-03-06T06:14:40.574Z,33.90
2019-03-06T06:15:40.501Z,34.00
2019-03-06T06:16:40.497Z,34.80
2019-03-06T06:17:40.486Z,36.30
2019-03-06T06:18:40.469Z,32.70
2019-03-06T06:19:40.493Z,35.40
2019-03-06T06:20:40.444Z,32.70
2019-03-06T06:21:40.450Z,33.50
2019-03-06T06:22:40.433Z,34.80
2019-03-06T06:23:40.423Z,36.70
2019-03-06T06:24:40.403Z,37.10
2019-03-06T06:25:40.418Z,36.60
2019-03-06T06:26:40.400Z,37.40
2019-03-06T06:27:40.369Z,33.80
2019-03-06T06:28:40.378Z,36.50
2019-03-06T06:29:40.356Z,37.40
2019-03-06T06:30:40.364Z,35.00
2019-03-06T06:31:40.380Z,36.90
2019-03-06T06:32:40.328Z,43.20
2019-03-06T06:33:40.323Z,41.40
2019-03-06T06:34:40.321Z,37.60
2019-03-06T06:35:40.334Z,41.60
2019-03-06T06:36:40.269Z,42.30
2019-03-06T06:37:40.299Z,41.10
2019-03-06T06:38:40.244Z,37.30
2019-03-06T06:39:40.237Z,33.80
2019-03-06T06:40:40.231Z,30.40
2019-03-06T06:41:40.247Z,31.80
2019-03-06T06:42:40.201Z,32.90
2019-03-06T06:43:40.210Z,32.80
2019-03-06T06:44:40.196Z,32.10
2019-03-06T06:45:40.173Z,32.60
2019-03-06T06:46:40.162Z,25.30
2019-03-06T06:47:40.154Z,26.40
2019-03-06T06:48:40.148Z,27.70
2019-03-06T06:49:40.216Z,29.20
2019-03-06T06:50:40.199Z,27.50
2019-03-06T06:51:40.102Z,22.90
2019-03-06T06:52:40.105Z,22.20
2019-03-06T06:53:40.097Z,23.80
2019-03-06T06:54:40.069Z,23.20
2019-03-06T06:55:40.078Z,23.50
2019-03-06T06:56:40.051Z,23.40
2019-03-06T06:57:40.034Z,23.00
2019-03-06T06:58:40.052Z,20.20
2019-03-06T06:59:40.015Z,21.20
2019-03-06T07:00:39.997Z,19.20
2019-03-06T07:01:39.996Z,19.80
2019-03-06T07:02:40.001Z,20.20
2019-03-06T07:03:39.964Z,18.40
2019-03-06T07:04:39.976Z,19.10
2019-03-06T07:05:39.960Z,17.70
2019-03-06T07:06:39.969Z,18.00
2019-03-06T07:07:39.922Z,19.10
2019-03-06T07:08:39.935Z,19.90
2019-03-06T07:09:39.914Z,19.30
2019-03-06T07:10:39.897Z,18.60
2019-03-06T07:11:39.888Z,18.20
2019-03-06T07:12:39.882Z,19.30
2019-03-06T07:13:39.859Z,16.00
2019-03-06T07:14:39.904Z,18.00
2019-03-06T07:15:39.847Z,16.60
2019-03-06T07:16:39.828Z,16.60
2019-03-06T07:17:39.820Z,15.70
2019-03-06T07:18:39.824Z,17.10
2019-03-06T07:19:39.792Z,17.30
2019-03-06T07:20:39.811Z,13.70
2019-03-06T07:21:39.783Z,14.10
2019-03-06T07:22:39.816Z,14.40
2019-03-06T07:23:41.316Z,13.50
2019-03-06T07:24:39.783Z,15.10
2019-03-06T07:25:39.746Z,14.80
2019-03-06T07:26:39.717Z,14.90
2019-03-06T07:27:39.704Z,13.50
2019-03-06T07:28:39.690Z,13.80
2019-03-06T07:29:39.688Z,14.90
2019-03-06T07:30:39.711Z,13.90
2019-03-06T07:31:39.657Z,13.40
2019-03-06T07:32:39.659Z,12.90
2019-03-06T07:33:39.632Z,13.00
2019-03-06T07:34:39.630Z,13.20
2019-03-06T07:35:39.613Z,13.70
2019-03-06T07:36:39.615Z,12.10
2019-03-06T07:37:39.596Z,12.20
2019-03-06T07:38:39.604Z,11.40
2019-03-06T07:39:39.579Z,11.60
2019-03-06T07:40:39.566Z,11.70
2019-03-06T07:41:39.580Z,11.90
2019-03-06T07:42:39.535Z,12.40
2019-03-06T07:43:39.524Z,12.40
2019-03-06T07:44:39.526Z,10.50
2019-03-06T07:45:39.502Z,10.80
2019-03-06T07:46:39.510Z,12.00
2019-03-06T07:47:39.476Z,11.80
2019-03-06T07:48:39.466Z,11.60
2019-03-06T07:49:45.114Z,12.00
2019-03-06T07:50:40.458Z,12.00
2019-03-06T07:51:39.475Z,10.60
2019-03-06T07:52:39.599Z,12.60
2019-03-06T07:53:39.438Z,11.10
2019-03-06T07:54:39.431Z,10.50
2019-03-06T07:55:39.400Z,10.50
2019-03-06T07:56:39.377Z,10.70
2019-03-06T07:57:39.415Z,9.50
2019-03-06T07:58:39.383Z,10.00
2019-03-06T07:59:39.371Z,10.30
2019-03-06T08:00:39.333Z,9.80
2019-03-06T08:01:39.334Z,9.00
2019-03-06T08:02:39.351Z,9.70
2019-03-06T08:03:39.405Z,9.30
2019-03-06T08:04:39.286Z,9.00
2019-03-06T08:05:39.274Z,10.80
2019-03-06T08:06:39.281Z,9.70
2019-03-06T08:07:39.253Z,9.60
2019-03-06T08:08:39.282Z,10.00
2019-03-06T08:09:39.243Z,9.50
2019-03-06T08:10:39.265Z,9.60
2019-03-06T08:11:39.223Z,9.70
2019-03-06T08:12:39.223Z,9.00
2019-03-06T08:13:39.203Z,10.00
2019-03-06T08:14:39.183Z,8.90
2019-03-06T08:15:39.169Z,9.30
2019-03-06T08:16:39.155Z,9.40
2019-03-06T08:17:39.146Z,9.30
2019-03-06T08:18:39.127Z,9.30
2019-03-06T08:19:39.192Z,9.20
2019-03-06T08:20:39.114Z,9.60
2019-03-06T08:21:39.097Z,9.00
2019-03-06T08:22:39.094Z,8.60
2019-03-06T08:23:39.089Z,9.00
2019-03-06T08:24:39.079Z,9.20
2019-03-06T08:25:39.067Z,10.10
2019-03-06T08:26:39.061Z,9.90
2019-03-06T08:27:39.042Z,9.20
2019-03-06T08:28:39.040Z,9.60
2019-03-06T08:29:39.004Z,8.90
2019-03-06T08:30:38.994Z,9.20
2019-03-06T08:31:38.988Z,9.10
2019-03-06T08:32:38.987Z,8.70
2019-03-06T08:33:38.963Z,8.60
2019-03-06T08:34:38.950Z,9.20
2019-03-06T08:35:38.953Z,9.20
2019-03-06T08:36:38.934Z,9.20
2019-03-06T08:37:38.923Z,8.60
2019-03-06T08:38:38.914Z,9.30
2019-03-06T08:39:38.902Z,9.10
2019-03-06T08:40:38.890Z,9.40
2019-03-06T08:41:38.915Z,7.90
2019-03-06T08:42:38.859Z,7.80
2019-03-06T08:43:38.853Z,8.40
2019-03-06T08:44:38.868Z,8.40
2019-03-06T08:45:38.841Z,7.70
2019-03-06T08:47:27.818Z,7.10
2019-03-06T08:48:27.796Z,8.00
2019-03-06T08:49:27.787Z,8.40
2019-03-06T08:50:27.790Z,7.90
2019-03-06T08:51:27.765Z,10.40
2019-03-06T08:52:27.805Z,9.70
2019-03-06T08:53:27.744Z,7.60
2019-03-06T08:54:27.776Z,9.50
2019-03-06T08:55:27.725Z,7.80
2019-03-06T08:56:27.766Z,7.50
2019-03-06T08:57:27.698Z,7.30
2019-03-06T08:58:27.690Z,7.60
2019-03-06T08:59:27.686Z,7.10
2019-03-06T09:00:27.671Z,6.80
2019-03-06T09:01:27.680Z,6.20
2019-03-06T09:02:27.640Z,6.40
2019-03-06T09:03:27.628Z,6.50
2019-03-06T09:04:27.616Z,6.70
2019-03-06T09:05:27.611Z,6.60
2019-03-06T09:06:27.629Z,5.80
2019-03-06T09:07:27.584Z,6.40
2019-03-06T09:08:27.634Z,6.70
2019-03-06T09:09:27.564Z,6.30
2019-03-06T09:10:27.576Z,6.80
2019-03-06T09:11:27.545Z,6.30
2019-03-06T09:12:27.550Z,6.20
2019-03-06T09:13:27.534Z,5.90
2019-03-06T09:14:27.527Z,6.60
2019-03-06T09:15:27.531Z,6.00
2019-03-06T09:16:27.486Z,7.10
2019-03-06T09:17:27.503Z,6.60
2019-03-06T09:18:27.484Z,6.80
2019-03-06T09:19:27.460Z,5.90
2019-03-06T09:20:36.017Z,6.60
2019-03-06T09:21:28.451Z,5.70
2019-03-06T09:22:27.514Z,5.40
2019-03-06T09:23:27.486Z,5.80
2019-03-06T09:24:27.403Z,6.60
2019-03-06T09:25:27.386Z,5.40
2019-03-06T09:26:27.424Z,6.60
2019-03-06T09:27:27.361Z,5.90
2019-03-06T09:28:27.355Z,6.60
2019-03-06T09:29:27.343Z,5.70
2019-03-06T09:30:27.382Z,6.90
2019-03-06T09:31:27.322Z,6.30
2019-03-06T09:32:27.360Z,6.00
2019-03-06T09:33:27.304Z,6.30
2019-03-06T09:34:28.271Z,6.40
2019-03-06T09:35:27.315Z,6.10
2019-03-06T09:36:27.281Z,10.20
2019-03-06T09:37:27.267Z,8.90
2019-03-06T09:38:27.258Z,7.80
2019-03-06T09:39:27.246Z,7.20
2019-03-06T09:40:27.224Z,6.80
2019-03-06T09:41:27.234Z,7.70
2019-03-06T09:42:27.229Z,6.30
2019-03-06T09:43:27.196Z,5.70
2019-03-06T09:44:27.196Z,7.10
2019-03-06T09:45:27.171Z,6.90
2019-03-06T09:46:27.169Z,6.90
2019-03-06T09:47:27.150Z,8.10
2019-03-06T09:48:27.162Z,7.30
2019-03-06T09:49:27.148Z,7.50
2019-03-06T09:50:27.132Z,6.60
2019-03-06T09:51:27.116Z,7.00
2019-03-06T09:52:27.115Z,6.40
2019-03-06T09:53:27.102Z,5.80
2019-03-06T09:54:27.073Z,5.70
2019-03-06T09:55:27.105Z,5.90
2019-03-06T09:56:27.047Z,6.40
2019-03-06T09:57:27.040Z,6.30
2019-03-06T09:58:27.059Z,5.60
2019-03-06T09:59:27.013Z,7.10
2019-03-06T10:00:27.003Z,7.40
2019-03-06T10:01:27.023Z,8.60
2019-03-06T10:02:26.975Z,7.80
2019-03-06T10:03:27.061Z,7.50
2019-03-06T10:04:26.979Z,6.20
2019-03-06T10:05:26.967Z,6.70
2019-03-06T10:06:26.932Z,7.30
2019-03-06T10:07:26.951Z,5.90
2019-03-06T10:08:26.917Z,8.10
2019-03-06T10:09:26.958Z,7.20
2019-03-06T10:10:26.884Z,6.70
2019-03-06T10:11:26.889Z,7.00
2019-03-06T10:12:26.896Z,7.20
2019-03-06T10:13:26.896Z,6.90
2019-03-06T10:14:26.856Z,6.70
2019-03-06T10:15:26.831Z,5.70
2019-03-06T10:16:26.816Z,6.70
2019-03-06T10:17:26.819Z,6.50
2019-03-06T10:18:26.960Z,6.40
2019-03-06T10:19:26.782Z,5.90
2019-03-06T10:20:26.792Z,5.40
2019-03-06T10:21:26.762Z,6.20
2019-03-06T10:22:26.789Z,5.40
2019-03-06T10:23:26.751Z,5.50
2019-03-06T10:24:26.741Z,5.70
2019-03-06T10:25:30.025Z,5.90
2019-03-06T10:26:28.938Z,5.50
2019-03-06T10:27:26.733Z,5.00
2019-03-06T10:28:27.973Z,6.10
2019-03-06T10:29:33.740Z,6.70
2019-03-06T10:30:26.669Z,5.20
2019-03-06T10:31:26.657Z,5.90
2019-03-06T10:32:33.819Z,5.60
2019-03-06T10:33:26.656Z,6.00
2019-03-06T10:34:26.622Z,4.80
2019-03-06T10:35:26.607Z,5.10
2019-03-06T10:36:26.599Z,4.50
2019-03-06T10:37:26.832Z,4.40
2019-03-06T10:38:26.608Z,4.70
2019-03-06T10:39:26.586Z,4.60
2019-03-06T10:40:26.568Z,6.00
2019-03-06T10:41:26.570Z,5.20
2019-03-06T10:42:26.593Z,5.60
2019-03-06T10:43:26.574Z,4.20
2019-03-06T10:44:29.764Z,4.50
2019-03-06T10:45:26.498Z,4.00
2019-03-06T10:46:26.504Z,4.30
2019-03-06T10:47:26.495Z,4.10
2019-03-06T10:48:26.476Z,4.10
2019-03-06T10:49:26.463Z,3.80
2019-03-06T10:50:27.114Z,3.50
2019-03-06T10:51:26.449Z,3.60
2019-03-06T10:52:26.452Z,3.10
2019-03-06T10:53:26.450Z,3.80
2019-03-06T10:54:26.397Z,5.00
2019-03-06T10:55:26.454Z,3.80
2019-03-06T10:56:26.427Z,4.70
2019-03-06T10:57:26.369Z,4.80
2019-03-06T10:58:26.388Z,4.10
2019-03-06T10:59:26.348Z,4.10
2019-03-06T11:00:26.359Z,3.80
2019-03-06T11:01:26.344Z,4.90
2019-03-06T11:02:26.318Z,3.90
2019-03-06T11:03:26.431Z,5.50
2019-03-06T11:04:26.335Z,4.90
2019-03-06T11:05:26.312Z,3.50
2019-03-06T11:06:26.293Z,4.90
2019-03-06T11:07:26.304Z,4.10
2019-03-06T11:08:26.324Z,4.20
2019-03-06T11:09:26.351Z,3.90
2019-03-06T11:10:26.885Z,4.00
2019-03-06T11:11:26.245Z,3.60
2019-03-06T11:12:33.275Z,3.90
2019-03-06T11:13:26.245Z,4.50
2019-03-06T11:14:26.258Z,4.80
2019-03-06T11:15:26.160Z,5.30
2019-03-06T11:16:26.160Z,4.60
2019-03-06T11:17:26.153Z,4.20
2019-03-06T11:18:26.147Z,4.80
2019-03-06T11:19:26.125Z,4.80
2019-03-06T11:20:26.102Z,5.80
2019-03-06T11:21:26.111Z,6.00
2019-03-06T11:22:26.196Z,5.80
2019-03-06T11:23:26.113Z,4.40
2019-03-06T11:24:26.061Z,5.80
2019-03-06T11:25:26.049Z,5.20
2019-03-06T11:26:26.033Z,6.30
2019-03-06T11:27:26.421Z,5.20
2019-03-06T11:28:26.039Z,5.10
2019-03-06T11:29:26.072Z,5.50
2019-03-06T11:30:26.048Z,4.80
2019-03-06T11:31:26.053Z,5.20
2019-03-06T11:32:26.109Z,5.50
2019-03-06T11:33:25.971Z,6.20
2019-03-06T11:34:25.959Z,4.50
2019-03-06T11:35:25.985Z,5.00
2019-03-06T11:36:25.959Z,4.20
2019-03-06T11:37:25.917Z,4.80
2019-03-06T11:38:26.101Z,4.00
2019-03-06T11:39:26.058Z,5.70
2019-03-06T11:40:25.900Z,4.20
2019-03-06T11:41:25.899Z,4.60
2019-03-06T11:42:25.874Z,4.30
2019-03-06T11:43:32.905Z,5.50
2019-03-06T11:44:25.832Z,3.40
2019-03-06T11:45:25.817Z,5.00
2019-03-06T11:46:25.807Z,3.90
2019-03-06T11:47:25.800Z,4.40
2019-03-06T11:48:25.786Z,3.20
2019-03-06T11:49:25.806Z,2.90
2019-03-06T11:50:25.763Z,2.80
2019-03-06T11:51:25.753Z,3.70
2019-03-06T11:52:25.740Z,3.60
2019-03-06T11:53:25.741Z,5.00
2019-03-06T11:54:25.761Z,2.50
2019-03-06T11:55:25.706Z,2.80
2019-03-06T11:56:25.706Z,3.80
2019-03-06T11:57:25.684Z,3.60
2019-03-06T11:58:25.693Z,2.80
2019-03-06T11:59:25.670Z,3.40
2019-03-06T12:00:25.666Z,3.00
2019-03-06T12:01:25.636Z,4.00
2019-03-06T12:02:25.665Z,3.80
2019-03-06T12:03:25.741Z,4.30
2019-03-06T12:04:25.628Z,3.80
2019-03-06T12:05:25.633Z,3.80
2019-03-06T12:06:25.623Z,3.60
2019-03-06T12:07:25.627Z,3.00
2019-03-06T12:08:25.622Z,4.60
2019-03-06T12:09:25.554Z,3.10
2019-03-06T12:10:25.540Z,4.20
2019-03-06T12:11:25.526Z,4.10
2019-03-06T12:12:25.528Z,3.20
2019-03-06T12:13:25.506Z,3.40
2019-03-06T12:14:25.498Z,3.70
2019-03-06T12:15:25.506Z,3.70
2019-03-06T12:16:25.472Z,3.40
2019-03-06T12:17:25.481Z,4.60
2019-03-06T12:18:25.458Z,4.30
2019-03-06T12:19:25.436Z,4.30
2019-03-06T12:20:25.467Z,3.60
2019-03-06T12:21:25.413Z,6.10
2019-03-06T12:22:25.405Z,5.00
2019-03-06T12:23:25.428Z,5.20
2019-03-06T12:24:25.383Z,3.90
2019-03-06T12:25:25.370Z,4.20
2019-03-06T12:26:25.377Z,3.50
2019-03-06T12:27:25.353Z,4.30
2019-03-06T12:28:25.358Z,4.40
2019-03-06T12:29:25.338Z,5.20
2019-03-06T12:30:25.314Z,5.10
2019-03-06T12:31:25.314Z,3.80
2019-03-06T12:32:27.182Z,4.90
2019-03-06T12:33:25.310Z,3.80
2019-03-06T12:34:25.271Z,4.40
2019-03-06T12:35:25.269Z,4.10
2019-03-06T12:36:25.263Z,4.10
2019-03-06T12:37:25.237Z,5.60
2019-03-06T12:38:25.236Z,4.30
2019-03-06T12:39:25.229Z,5.30
2019-03-06T12:40:25.206Z,4.70
2019-03-06T12:41:25.241Z,3.60
2019-03-06T12:42:25.183Z,3.70
2019-03-06T12:43:25.171Z,4.40
2019-03-06T12:44:25.169Z,4.00
2019-03-06T12:45:27.148Z,4.80
2019-03-06T12:46:26.155Z,4.90
2019-03-06T12:47:25.171Z,3.70
2019-03-06T12:48:25.118Z,4.10
2019-03-06T12:49:25.115Z,4.30
2019-03-06T12:50:25.101Z,3.90
2019-03-06T12:51:25.087Z,3.80
2019-03-06T12:52:25.070Z,5.20
2019-03-06T12:53:25.067Z,4.50
2019-03-06T12:54:25.068Z,4.60
2019-03-06T12:55:25.035Z,5.30
2019-03-06T12:56:25.040Z,3.80
2019-03-06T12:57:25.006Z,3.40
2019-03-06T12:58:24.999Z,3.10
2019-03-06T12:59:25.016Z,4.10
2019-03-06T13:00:24.983Z,5.00
2019-03-06T13:01:24.971Z,5.70
2019-03-06T13:02:24.981Z,6.60
2019-03-06T13:03:24.950Z,4.10
2019-03-06T13:04:24.938Z,4.00
2019-03-06T13:05:24.947Z,4.70
2019-03-06T13:06:25.329Z,4.50